Memphis (MEM/KMEM)

Map

Destinations

Information

Location
Memphis, TN
Local Time
12:36 / 12:36 pm
GMT Time
18:36 / 6:36 pm
Gates
Unassigned
No FAA reported delays
METAR KMEM 191754Z 00000KT 10SM FEW040 SCT250 22/12 A3010 RMK AO2 SLP192 T02170122 10217 20083 50000
TAF KMEM 191734Z 1918/2018 VRB05KT P6SM FEW030 FM200000 14004KT P6SM SKC FM201500 16007KT P6SM SCT250
  • No charts available